Time;durP1;ratioP1;P1;durP2;ratioP2;P2;SDS_P1;SDS_P2;PMS_P1;PMS_P2;Temp;Humidity;BMP_temperature;BMP_pressure;BME280_temperature;BME280_humidity;BME280_pressure;Samples;Min_cycle;Max_cycle;Signal;HPM_P1;HPM_P2
2022/10/27 00:01:48;;;;;;;25.08;14.05;;;;;;;;;;4918621;29;20134;-76
2022/10/27 00:04:14;;;;;;;26.48;15.15;;;;;;;;;;4918612;29;20047;-75
2022/10/27 00:06:40;;;;;;;24.02;14.90;;;;;;;;;;4918265;29;20051;-76
2022/10/27 00:09:06;;;;;;;23.63;13.68;;;;;;;;;;4918569;29;20071;-76
2022/10/27 00:11:32;;;;;;;25.20;14.43;;;;;;;;;;4918574;29;20044;-76
2022/10/27 00:13:59;;;;;;;27.13;14.95;;;;;;;;;;4918548;29;20072;-76
2022/10/27 00:16:25;;;;;;;21.83;14.40;;;;;;;;;;4918565;29;20052;-76
2022/10/27 00:18:51;;;;;;;24.90;15.13;;;;;;;;;;4918709;29;20052;-76
2022/10/27 00:21:19;;;;;;;32.25;15.63;;;;;;;;;;4918183;29;20040;-76
2022/10/27 00:23:49;;;;;;;33.80;17.40;;;;;;;;;;4918155;29;20040;-75
2022/10/27 00:26:15;;;;;;;30.55;16.52;;;;;;;;;;4918014;29;20051;-75
2022/10/27 00:28:41;;;;;;;28.58;17.17;;;;;;;;;;4918863;29;20068;-75
2022/10/27 00:31:11;;;;;;;29.58;17.70;;;;;;;;;;4918023;29;20132;-76
2022/10/27 00:33:37;;;;;;;33.28;17.13;;;;;;;;;;4918056;29;20036;-75
2022/10/27 00:36:07;;;;;;;36.33;17.77;;;;;;;;;;4918734;29;20048;-76
2022/10/27 00:38:34;;;;;;;27.55;17.98;;;;;;;;;;4918477;29;20048;-76
2022/10/27 00:41:01;;;;;;;31.88;18.75;;;;;;;;;;4917718;29;20083;-76
2022/10/27 00:43:31;;;;;;;32.58;19.35;;;;;;;;;;4918498;29;20476;-75
2022/10/27 00:46:01;;;;;;;33.63;18.33;;;;;;;;;;4918182;29;20048;-75
2022/10/27 00:48:28;;;;;;;47.67;19.90;;;;;;;;;;4919005;29;20036;-75
2022/10/27 00:50:54;;;;;;;33.83;18.70;;;;;;;;;;4918400;29;20044;-76
2022/10/27 00:53:20;;;;;;;38.20;19.83;;;;;;;;;;4918153;29;20514;-76
2022/10/27 00:55:46;;;;;;;35.00;19.10;;;;;;;;;;4917558;29;20554;-76
2022/10/27 00:58:15;;;;;;;42.22;19.33;;;;;;;;;;4918414;29;20081;-76
2022/10/27 01:00:41;;;;;;;35.75;19.45;;;;;;;;;;4917791;29;20499;-76
2022/10/27 01:03:09;;;;;;;39.75;20.75;;;;;;;;;;4917812;29;20074;-75
2022/10/27 01:05:35;;;;;;;33.00;19.60;;;;;;;;;;4917754;29;20057;-75
2022/10/27 01:08:03;;;;;;;38.63;20.65;;;;;;;;;;4918719;29;20036;-76
2022/10/27 01:10:29;;;;;;;35.95;19.95;;;;;;;;;;4920842;29;20122;-76
2022/10/27 01:12:55;;;;;;;46.53;21.23;;;;;;;;;;4921564;29;20044;-76
2022/10/27 01:15:24;;;;;;;43.88;20.02;;;;;;;;;;4921338;29;20054;-76
2022/10/27 01:17:53;;;;;;;37.63;19.98;;;;;;;;;;4921304;29;20072;-75
2022/10/27 01:20:38;;;;;;;36.80;19.52;;;;;;;;;;4921293;29;20040;-75
2022/10/27 01:23:05;;;;;;;33.13;19.40;;;;;;;;;;4921069;29;20036;-75
2022/10/27 01:25:46;;;;;;;33.35;17.48;;;;;;;;;;4921078;29;20514;-76
2022/10/27 01:28:42;;;;;;;33.25;17.52;;;;;;;;;;4921448;29;20039;-76
2022/10/27 01:31:17;;;;;;;28.92;16.48;;;;;;;;;;4921090;29;20399;-76
2022/10/27 01:34:00;;;;;;;31.90;16.98;;;;;;;;;;4921020;29;20127;-75
2022/10/27 01:36:33;;;;;;;30.48;15.85;;;;;;;;;;4921280;29;20135;-75
2022/10/27 01:39:04;;;;;;;27.45;15.00;;;;;;;;;;4921146;29;20048;-76
2022/10/27 01:41:34;;;;;;;30.88;15.05;;;;;;;;;;4921197;29;20051;-75
2022/10/27 01:44:04;;;;;;;27.52;13.55;;;;;;;;;;4921245;29;20044;-76
2022/10/27 01:46:30;;;;;;;34.17;14.55;;;;;;;;;;4921418;29;20044;-76
2022/10/27 01:48:56;;;;;;;30.88;14.40;;;;;;;;;;4920827;29;20052;-76
2022/10/27 01:51:22;;;;;;;31.75;14.43;;;;;;;;;;4921001;29;20065;-76
2022/10/27 01:53:49;;;;;;;21.50;13.82;;;;;;;;;;4920732;29;20044;-75
2022/10/27 01:56:34;;;;;;;23.95;13.05;;;;;;;;;;4921209;29;20197;-75
2022/10/27 01:59:07;;;;;;;19.55;12.98;;;;;;;;;;4920614;29;20052;-75
2022/10/27 02:01:52;;;;;;;24.65;13.77;;;;;;;;;;4920625;29;20160;-75
2022/10/27 02:04:18;;;;;;;26.80;12.38;;;;;;;;;;4920566;29;20044;-75
2022/10/27 02:06:50;;;;;;;26.05;12.75;;;;;;;;;;4920547;29;20632;-75
2022/10/27 02:09:16;;;;;;;23.10;12.77;;;;;;;;;;4920441;29;20036;-76
2022/10/27 02:11:43;;;;;;;26.90;12.73;;;;;;;;;;4920706;29;20048;-75
2022/10/27 02:14:10;;;;;;;27.60;13.45;;;;;;;;;;4920108;29;20035;-75
2022/10/27 02:16:40;;;;;;;25.65;11.93;;;;;;;;;;4919895;29;20044;-75
2022/10/27 02:19:11;;;;;;;23.63;12.55;;;;;;;;;;4920560;29;20052;-76
2022/10/27 02:21:37;;;;;;;24.73;11.95;;;;;;;;;;4919588;29;20488;-76
2022/10/27 02:24:04;;;;;;;29.05;12.50;;;;;;;;;;4919806;29;20452;-75
2022/10/27 02:26:42;;;;;;;24.63;12.77;;;;;;;;;;4920161;29;20047;-76
2022/10/27 02:29:14;;;;;;;26.00;12.05;;;;;;;;;;4920336;29;20078;-76
2022/10/27 02:31:43;;;;;;;24.48;11.85;;;;;;;;;;4920313;29;20047;-75
2022/10/27 02:34:09;;;;;;;22.27;11.82;;;;;;;;;;4920154;29;20095;-76
2022/10/27 02:36:35;;;;;;;23.15;12.88;;;;;;;;;;4920147;29;20048;-75
2022/10/27 02:39:01;;;;;;;21.80;11.75;;;;;;;;;;4920326;29;20107;-76
2022/10/27 02:41:27;;;;;;;24.58;11.95;;;;;;;;;;4919750;29;20064;-75
2022/10/27 02:43:53;;;;;;;27.60;11.75;;;;;;;;;;4919732;29;20517;-75
2022/10/27 02:46:20;;;;;;;20.25;11.73;;;;;;;;;;4919499;29;20040;-76
2022/10/27 02:48:46;;;;;;;24.38;11.52;;;;;;;;;;4918837;29;20036;-75
2022/10/27 02:51:12;;;;;;;22.20;12.52;;;;;;;;;;4919129;29;20044;-75
2022/10/27 02:53:38;;;;;;;18.00;11.43;;;;;;;;;;4919049;29;20055;-76
2022/10/27 02:56:04;;;;;;;20.65;10.70;;;;;;;;;;4919091;29;20051;-75
2022/10/27 02:58:30;;;;;;;21.80;11.23;;;;;;;;;;4919752;29;20048;-75
2022/10/27 03:00:57;;;;;;;25.35;11.57;;;;;;;;;;4919258;29;20043;-76
2022/10/27 03:03:23;;;;;;;23.70;11.30;;;;;;;;;;4918834;29;20040;-75
2022/10/27 03:05:49;;;;;;;26.38;11.77;;;;;;;;;;4919302;29;20136;-76
2022/10/27 03:08:16;;;;;;;21.38;11.32;;;;;;;;;;4919370;29;20073;-76
2022/10/27 03:10:43;;;;;;;27.73;12.60;;;;;;;;;;4919087;29;20036;-76
2022/10/27 03:13:09;;;;;;;24.52;12.48;;;;;;;;;;4918741;29;20365;-75
2022/10/27 03:15:35;;;;;;;26.00;12.90;;;;;;;;;;4918873;29;20111;-76
2022/10/27 03:18:01;;;;;;;23.48;13.27;;;;;;;;;;4918661;29;20048;-75
2022/10/27 03:20:27;;;;;;;20.83;13.65;;;;;;;;;;4918955;29;20048;-75
2022/10/27 03:22:54;;;;;;;26.02;13.48;;;;;;;;;;4918579;29;20040;-75
2022/10/27 03:25:20;;;;;;;25.83;13.68;;;;;;;;;;4918425;29;20084;-76
2022/10/27 03:27:46;;;;;;;23.48;13.00;;;;;;;;;;4918445;29;20035;-75
2022/10/27 03:30:13;;;;;;;22.13;12.25;;;;;;;;;;4918905;29;20055;-75
2022/10/27 03:32:40;;;;;;;25.20;14.20;;;;;;;;;;4917525;29;20040;-75
2022/10/27 03:35:06;;;;;;;25.67;12.85;;;;;;;;;;4918312;29;20147;-75
2022/10/27 03:37:32;;;;;;;22.90;12.15;;;;;;;;;;4918580;29;20043;-76
2022/10/27 03:39:58;;;;;;;26.08;13.05;;;;;;;;;;4918611;29;20071;-75
2022/10/27 03:42:24;;;;;;;31.23;12.80;;;;;;;;;;4918115;29;20060;-76
2022/10/27 03:44:50;;;;;;;25.52;12.80;;;;;;;;;;4918733;29;20111;-76
2022/10/27 03:47:17;;;;;;;21.15;13.27;;;;;;;;;;4919041;29;20095;-76
2022/10/27 03:49:43;;;;;;;28.25;12.40;;;;;;;;;;4918609;29;20044;-75
2022/10/27 03:52:09;;;;;;;21.90;12.23;;;;;;;;;;4918693;29;20484;-76
2022/10/27 03:54:35;;;;;;;25.02;12.07;;;;;;;;;;4918277;29;20123;-76
2022/10/27 03:57:01;;;;;;;31.48;12.70;;;;;;;;;;4918040;29;20473;-76
2022/10/27 03:59:27;;;;;;;29.45;12.93;;;;;;;;;;4918286;29;20126;-75
2022/10/27 04:01:53;;;;;;;22.65;11.45;;;;;;;;;;4918745;29;20048;-75
2022/10/27 04:04:19;;;;;;;24.17;12.27;;;;;;;;;;4918366;29;20130;-76
2022/10/27 04:06:45;;;;;;;20.35;12.13;;;;;;;;;;4918291;29;20052;-75
2022/10/27 04:09:11;;;;;;;22.05;12.23;;;;;;;;;;4918347;29;20078;-76
2022/10/27 04:11:38;;;;;;;22.13;11.82;;;;;;;;;;4918249;29;20127;-75
2022/10/27 04:14:04;;;;;;;20.08;11.68;;;;;;;;;;4918219;29;20040;-76
2022/10/27 04:16:30;;;;;;;24.42;12.35;;;;;;;;;;4918403;29;20051;-76
2022/10/27 04:18:56;;;;;;;17.80;11.45;;;;;;;;;;4918164;29;20052;-76
2022/10/27 04:21:22;;;;;;;22.08;13.18;;;;;;;;;;4918493;29;20123;-75
2022/10/27 04:23:48;;;;;;;19.73;11.38;;;;;;;;;;4917835;29;20044;-76
2022/10/27 04:26:14;;;;;;;20.92;12.48;;;;;;;;;;4917623;29;20051;-76
2022/10/27 04:28:40;;;;;;;25.17;13.07;;;;;;;;;;4918337;29;20071;-76
2022/10/27 04:31:06;;;;;;;24.45;13.30;;;;;;;;;;4918116;29;20161;-76
2022/10/27 04:33:32;;;;;;;22.52;14.80;;;;;;;;;;4918546;29;20032;-76
2022/10/27 04:35:59;;;;;;;28.20;12.52;;;;;;;;;;4917952;29;20050;-75
2022/10/27 04:38:25;;;;;;;24.15;12.35;;;;;;;;;;4918348;29;20502;-75
2022/10/27 04:40:51;;;;;;;23.60;13.93;;;;;;;;;;4917544;29;20147;-76
2022/10/27 04:43:17;;;;;;;32.83;16.35;;;;;;;;;;4918857;29;20500;-76
2022/10/27 04:45:43;;;;;;;23.00;12.57;;;;;;;;;;4921166;29;20047;-76
2022/10/27 04:48:09;;;;;;;24.20;12.95;;;;;;;;;;4921044;29;20047;-76
2022/10/27 04:50:35;;;;;;;26.33;12.20;;;;;;;;;;4920247;29;20058;-76
2022/10/27 04:53:02;;;;;;;22.80;13.15;;;;;;;;;;4920681;29;20046;-76
2022/10/27 04:55:30;;;;;;;25.33;13.25;;;;;;;;;;4920291;29;20059;-76
2022/10/27 04:57:56;;;;;;;21.10;12.30;;;;;;;;;;4919168;29;20107;-76
2022/10/27 05:00:23;;;;;;;21.90;12.60;;;;;;;;;;4916137;29;20127;-76
2022/10/27 05:02:53;;;;;;;24.85;14.32;;;;;;;;;;4920724;29;20122;-76
2022/10/27 05:05:19;;;;;;;24.35;13.23;;;;;;;;;;4921021;29;20040;-76
2022/10/27 05:07:52;;;;;;;20.58;12.55;;;;;;;;;;4920995;29;20052;-76
2022/10/27 05:10:18;;;;;;;26.90;13.43;;;;;;;;;;4921232;29;20090;-76
2022/10/27 05:12:45;;;;;;;20.13;12.60;;;;;;;;;;4921199;29;20067;-76
2022/10/27 05:15:11;;;;;;;21.90;12.63;;;;;;;;;;4921132;29;20044;-76
2022/10/27 05:17:37;;;;;;;29.13;12.88;;;;;;;;;;4921636;29;20508;-76
2022/10/27 05:20:04;;;;;;;18.63;12.43;;;;;;;;;;4921277;29;20048;-75
2022/10/27 05:22:30;;;;;;;24.50;13.02;;;;;;;;;;4920995;29;20127;-76
2022/10/27 05:24:56;;;;;;;20.08;11.93;;;;;;;;;;4920996;29;20080;-76
2022/10/27 05:27:22;;;;;;;23.30;12.70;;;;;;;;;;4921473;29;20054;-76
2022/10/27 05:29:49;;;;;;;20.92;11.32;;;;;;;;;;4921099;29;20574;-76
2022/10/27 05:32:15;;;;;;;20.90;12.10;;;;;;;;;;4921143;29;20040;-76
2022/10/27 05:34:42;;;;;;;24.13;11.63;;;;;;;;;;4920510;29;20048;-75
2022/10/27 05:37:08;;;;;;;24.58;11.77;;;;;;;;;;4920669;29;20044;-76
2022/10/27 05:39:34;;;;;;;22.50;11.95;;;;;;;;;;4920882;29;20056;-76
2022/10/27 05:42:00;;;;;;;19.15;12.23;;;;;;;;;;4920297;29;20115;-75
2022/10/27 05:44:26;;;;;;;22.98;12.50;;;;;;;;;;4920925;29;20087;-76
2022/10/27 05:46:53;;;;;;;26.52;13.25;;;;;;;;;;4920328;29;20059;-76
2022/10/27 05:49:19;;;;;;;27.52;14.13;;;;;;;;;;4920573;29;20530;-80
2022/10/27 05:51:45;;;;;;;22.95;12.77;;;;;;;;;;4920468;29;20072;-76
2022/10/27 05:54:11;;;;;;;23.33;11.80;;;;;;;;;;4919743;29;20500;-76
2022/10/27 05:56:37;;;;;;;22.77;12.73;;;;;;;;;;4919874;29;20559;-76
2022/10/27 05:59:03;;;;;;;29.23;12.60;;;;;;;;;;4920048;29;20088;-75
2022/10/27 06:01:29;;;;;;;23.85;12.25;;;;;;;;;;4919818;29;20387;-75
2022/10/27 06:03:55;;;;;;;26.10;12.90;;;;;;;;;;4920307;29;20206;-75
2022/10/27 06:06:21;;;;;;;23.63;12.45;;;;;;;;;;4920768;29;20055;-75
2022/10/27 06:08:48;;;;;;;29.70;13.13;;;;;;;;;;4920473;29;20048;-75
2022/10/27 06:11:14;;;;;;;21.10;12.98;;;;;;;;;;4919915;29;20449;-75
2022/10/27 06:13:40;;;;;;;25.02;12.52;;;;;;;;;;4920346;29;20040;-75
2022/10/27 06:16:06;;;;;;;23.92;11.90;;;;;;;;;;4919699;29;20452;-75
2022/10/27 06:18:32;;;;;;;21.67;12.88;;;;;;;;;;4920019;29;20495;-75
2022/10/27 06:20:58;;;;;;;23.15;13.02;;;;;;;;;;4920278;29;20091;-75
2022/10/27 06:23:24;;;;;;;20.10;11.55;;;;;;;;;;4919939;29;20115;-75
2022/10/27 06:25:50;;;;;;;21.65;12.45;;;;;;;;;;4919619;29;20226;-75
2022/10/27 06:28:17;;;;;;;28.45;13.25;;;;;;;;;;4919892;29;20388;-75
2022/10/27 06:30:44;;;;;;;26.42;11.77;;;;;;;;;;4919491;29;20044;-75
2022/10/27 06:33:10;;;;;;;23.05;11.57;;;;;;;;;;4919732;29;20043;-75
2022/10/27 06:35:36;;;;;;;23.92;11.80;;;;;;;;;;4919670;29;20052;-75
2022/10/27 06:38:02;;;;;;;24.77;12.30;;;;;;;;;;4920222;29;20082;-75
2022/10/27 06:40:28;;;;;;;22.58;11.05;;;;;;;;;;4919492;29;20123;-75
2022/10/27 06:42:54;;;;;;;21.13;11.45;;;;;;;;;;4919915;29;20476;-75
2022/10/27 06:45:20;;;;;;;23.58;11.05;;;;;;;;;;4919475;29;20043;-75
2022/10/27 06:47:54;;;;;;;20.40;11.65;;;;;;;;;;4920325;29;20540;-75
2022/10/27 06:50:20;;;;;;;20.15;10.93;;;;;;;;;;4919765;29;20048;-75
2022/10/27 06:52:46;;;;;;;17.33;11.45;;;;;;;;;;4919933;29;20051;-75
2022/10/27 06:55:13;;;;;;;21.20;10.73;;;;;;;;;;4919141;29;20067;-75
2022/10/27 06:57:40;;;;;;;17.95;10.10;;;;;;;;;;4919807;29;20547;-75
2022/10/27 07:00:06;;;;;;;21.75;11.23;;;;;;;;;;4918141;29;20051;-75
2022/10/27 07:02:33;;;;;;;18.73;11.00;;;;;;;;;;4924735;29;20043;-75
2022/10/27 07:04:59;;;;;;;23.60;11.57;;;;;;;;;;4921255;29;20518;-75
2022/10/27 07:07:25;;;;;;;23.70;11.50;;;;;;;;;;4918150;29;20072;-75
2022/10/27 07:09:51;;;;;;;23.42;10.90;;;;;;;;;;4918115;29;20556;-75
2022/10/27 07:12:17;;;;;;;22.65;9.98;;;;;;;;;;4930137;29;20046;-75
2022/10/27 07:14:43;;;;;;;29.45;10.80;;;;;;;;;;4938265;29;20035;-75
2022/10/27 07:17:09;;;;;;;24.17;11.68;;;;;;;;;;4920080;29;20397;-75
2022/10/27 07:19:35;;;;;;;27.23;11.40;;;;;;;;;;4919255;29;20052;-75
2022/10/27 07:22:01;;;;;;;22.60;11.35;;;;;;;;;;4918878;29;20040;-76
2022/10/27 07:24:27;;;;;;;19.70;11.52;;;;;;;;;;4919251;29;20255;-75
2022/10/27 07:26:54;;;;;;;23.65;10.32;;;;;;;;;;4919346;29;20048;-75
2022/10/27 07:29:20;;;;;;;19.40;10.20;;;;;;;;;;4929092;29;20075;-75
2022/10/27 07:31:47;;;;;;;22.55;10.70;;;;;;;;;;4918188;29;20044;-75
2022/10/27 07:34:14;;;;;;;22.88;10.93;;;;;;;;;;4916129;29;20050;-75
2022/10/27 07:36:40;;;;;;;47.05;30.27;;;;;;;;;;4917447;29;20657;-75
2022/10/27 07:39:07;;;;;;;36.58;22.13;;;;;;;;;;4916177;29;20123;-75
2022/10/27 07:41:33;;;;;;;61.67;40.40;;;;;;;;;;4916786;29;20060;-76
2022/10/27 07:43:59;;;;;;;53.40;35.60;;;;;;;;;;4917092;29;20039;-77
2022/10/27 07:46:30;;;;;;;66.03;47.47;;;;;;;;;;4917221;29;20047;-76
2022/10/27 07:48:56;;;;;;;42.90;27.83;;;;;;;;;;4915237;29;20115;-77
2022/10/27 07:51:22;;;;;;;35.08;22.20;;;;;;;;;;4917329;29;20044;-76
2022/10/27 07:53:49;;;;;;;34.47;15.43;;;;;;;;;;4917064;29;20052;-76
2022/10/27 07:56:16;;;;;;;29.40;13.00;;;;;;;;;;4916523;29;20054;-76
2022/10/27 07:58:42;;;;;;;28.58;12.85;;;;;;;;;;4917121;29;20127;-75
2022/10/27 08:01:09;;;;;;;30.05;13.75;;;;;;;;;;4916853;29;20047;-77
2022/10/27 08:03:35;;;;;;;26.02;13.05;;;;;;;;;;4916848;29;20075;-77
2022/10/27 08:06:02;;;;;;;26.55;11.75;;;;;;;;;;4916902;29;20526;-75
2022/10/27 08:08:28;;;;;;;30.30;13.55;;;;;;;;;;4916834;29;20056;-75
2022/10/27 08:10:55;;;;;;;35.28;14.57;;;;;;;;;;4916837;29;20036;-74
2022/10/27 08:13:21;;;;;;;34.60;14.50;;;;;;;;;;4913897;29;20068;-74
2022/10/27 08:15:47;;;;;;;30.23;14.18;;;;;;;;;;4930355;29;20050;-75
2022/10/27 08:18:14;;;;;;;27.33;12.13;;;;;;;;;;4932308;29;20556;-75
2022/10/27 08:20:41;;;;;;;22.13;12.45;;;;;;;;;;4919070;29;20070;-75
2022/10/27 08:23:10;;;;;;;30.75;13.27;;;;;;;;;;4921458;29;20103;-75
2022/10/27 08:25:36;;;;;;;33.38;13.68;;;;;;;;;;4918653;29;20044;-75
2022/10/27 08:28:02;;;;;;;36.22;13.02;;;;;;;;;;4921336;29;20096;-75
2022/10/27 08:30:30;;;;;;;29.40;13.23;;;;;;;;;;4921708;29;20071;-75
2022/10/27 08:32:57;;;;;;;31.50;12.75;;;;;;;;;;4918980;29;20095;-75
2022/10/27 08:35:27;;;;;;;34.88;13.43;;;;;;;;;;4925588;29;20119;-75
2022/10/27 08:38:00;;;;;;;29.42;12.40;;;;;;;;;;4921403;29;20059;-75
2022/10/27 08:40:32;;;;;;;36.65;13.45;;;;;;;;;;4920845;29;20052;-75
2022/10/27 08:43:14;;;;;;;24.25;11.95;;;;;;;;;;4918468;29;20047;-75
2022/10/27 08:45:49;;;;;;;20.75;11.00;;;;;;;;;;4918810;29;20503;-74
2022/10/27 08:48:19;;;;;;;23.23;11.35;;;;;;;;;;4920661;29;20530;-74
2022/10/27 08:50:46;;;;;;;21.48;11.20;;;;;;;;;;4920354;29;20098;-74
2022/10/27 08:53:15;;;;;;;27.13;11.15;;;;;;;;;;4920372;29;20040;-74
2022/10/27 08:55:44;;;;;;;30.38;11.45;;;;;;;;;;4919797;29;20547;-74
2022/10/27 08:58:17;;;;;;;34.00;12.48;;;;;;;;;;4919846;29;20042;-74
2022/10/27 09:00:52;;;;;;;34.88;11.88;;;;;;;;;;4920699;29;20054;-74
2022/10/27 09:03:21;;;;;;;24.60;10.93;;;;;;;;;;4919090;29;20066;-74
2022/10/27 09:05:53;;;;;;;23.30;11.27;;;;;;;;;;4919243;29;20040;-76
2022/10/27 09:08:31;;;;;;;23.55;10.48;;;;;;;;;;4918217;29;20468;-74
2022/10/27 09:10:57;;;;;;;20.52;10.93;;;;;;;;;;4917742;29;20074;-74
2022/10/27 09:13:32;;;;;;;32.60;11.50;;;;;;;;;;4923353;29;20064;-75
2022/10/27 09:16:00;;;;;;;22.45;11.20;;;;;;;;;;4918196;29;20410;-75
2022/10/27 09:18:27;;;;;;;24.95;10.73;;;;;;;;;;4921094;29;20423;-77
2022/10/27 09:20:55;;;;;;;25.15;11.38;;;;;;;;;;4920259;29;20040;-77
2022/10/27 09:23:30;;;;;;;25.88;11.43;;;;;;;;;;4919900;29;20036;-73
2022/10/27 09:25:57;;;;;;;20.58;11.13;;;;;;;;;;4917015;29;20052;-74
2022/10/27 09:28:26;;;;;;;22.90;11.20;;;;;;;;;;4919887;29;20044;-73
2022/10/27 09:30:52;;;;;;;23.70;10.85;;;;;;;;;;4917666;29;20044;-74
2022/10/27 09:33:20;;;;;;;21.90;9.55;;;;;;;;;;4920101;29;20071;-73
2022/10/27 09:35:50;;;;;;;23.52;9.05;;;;;;;;;;4919892;29;20059;-74
2022/10/27 09:38:19;;;;;;;26.20;9.82;;;;;;;;;;4920118;29;20587;-75
2022/10/27 09:40:45;;;;;;;23.38;8.93;;;;;;;;;;4934186;29;20114;-74
2022/10/27 09:43:11;;;;;;;19.80;8.35;;;;;;;;;;4917172;29;20063;-72
2022/10/27 09:45:39;;;;;;;17.58;8.13;;;;;;;;;;4918840;29;20095;-75
2022/10/27 09:48:07;;;;;;;16.15;8.23;;;;;;;;;;4919027;29;20542;-75
2022/10/27 09:50:39;;;;;;;18.30;8.40;;;;;;;;;;4919306;29;20044;-77
2022/10/27 09:53:06;;;;;;;20.73;7.82;;;;;;;;;;4920533;29;20084;-76
2022/10/27 09:55:51;;;;;;;25.33;7.90;;;;;;;;;;4917169;29;20527;-77
2022/10/27 09:58:18;;;;;;;18.48;7.75;;;;;;;;;;4917190;29;20079;-76
2022/10/27 10:00:44;;;;;;;16.13;7.20;;;;;;;;;;4919577;29;20515;-75
2022/10/27 10:03:21;;;;;;;15.05;6.97;;;;;;;;;;4918037;29;20055;-74
2022/10/27 10:05:59;;;;;;;18.73;7.70;;;;;;;;;;4919592;29;20047;-76
2022/10/27 10:08:26;;;;;;;21.95;8.07;;;;;;;;;;4931864;29;20048;-77
2022/10/27 10:11:03;;;;;;;19.55;7.63;;;;;;;;;;4915945;29;20048;-74
2022/10/27 10:13:30;;;;;;;16.98;7.93;;;;;;;;;;4918085;29;20483;-73
2022/10/27 10:16:08;;;;;;;20.95;7.50;;;;;;;;;;4918824;29;20092;-74
2022/10/27 10:18:35;;;;;;;18.70;7.47;;;;;;;;;;4918489;29;20522;-74
2022/10/27 10:21:08;;;;;;;19.67;7.82;;;;;;;;;;4919080;29;20032;-74
2022/10/27 10:23:42;;;;;;;24.20;8.18;;;;;;;;;;4918654;29;20047;-73
2022/10/27 10:26:15;;;;;;;16.20;7.88;;;;;;;;;;4917901;29;20598;-74
2022/10/27 10:28:42;;;;;;;20.58;8.10;;;;;;;;;;4917499;29;20050;-74
2022/10/27 10:31:10;;;;;;;26.10;9.52;;;;;;;;;;4919433;29;20048;-74
2022/10/27 10:33:42;;;;;;;18.27;8.10;;;;;;;;;;4913789;29;20044;-77
2022/10/27 10:36:28;;;;;;;19.77;8.35;;;;;;;;;;4918546;29;20219;-75
2022/10/27 10:38:55;;;;;;;20.50;8.80;;;;;;;;;;4919839;29;20076;-76
2022/10/27 10:41:22;;;;;;;19.30;8.85;;;;;;;;;;4917371;29;20523;-74
2022/10/27 10:44:07;;;;;;;19.30;8.27;;;;;;;;;;4918627;29;20101;-76
2022/10/27 10:46:35;;;;;;;19.50;7.97;;;;;;;;;;4913737;29;20162;-75
2022/10/27 10:49:01;;;;;;;20.67;7.88;;;;;;;;;;4916424;29;20068;-75
2022/10/27 10:51:29;;;;;;;19.42;8.13;;;;;;;;;;4931850;29;20126;-75
2022/10/27 10:54:04;;;;;;;15.52;8.07;;;;;;;;;;4936996;29;20082;-75
2022/10/27 10:56:31;;;;;;;17.48;7.85;;;;;;;;;;4919880;29;20116;-75
2022/10/27 10:59:09;;;;;;;19.48;7.32;;;;;;;;;;4918261;29;20040;-75
2022/10/27 11:01:59;;;;;;;19.85;8.73;;;;;;;;;;4919131;29;20067;-76
2022/10/27 11:04:27;;;;;;;15.77;7.03;;;;;;;;;;4932811;29;20043;-76
2022/10/27 11:07:05;;;;;;;25.05;8.65;;;;;;;;;;4900462;29;20056;-75
2022/10/27 11:09:43;;;;;;;18.58;7.47;;;;;;;;;;4907185;29;20404;-74
2022/10/27 11:12:17;;;;;;;20.05;7.70;;;;;;;;;;4917785;29;20066;-74
2022/10/27 11:14:43;;;;;;;22.25;7.88;;;;;;;;;;4934037;29;20044;-75
2022/10/27 11:17:10;;;;;;;19.92;8.18;;;;;;;;;;4929796;29;20063;-75
2022/10/27 11:19:39;;;;;;;16.67;8.35;;;;;;;;;;4919143;29;20050;-73
2022/10/27 11:22:09;;;;;;;25.75;8.82;;;;;;;;;;4917454;29;20086;-75
2022/10/27 11:24:35;;;;;;;23.50;9.23;;;;;;;;;;4917574;29;20511;-77
2022/10/27 11:27:11;;;;;;;19.00;8.20;;;;;;;;;;4917930;29;20272;-75
2022/10/27 11:29:55;;;;;;;21.77;7.97;;;;;;;;;;4918724;29;20048;-75
2022/10/27 11:32:40;;;;;;;24.70;8.63;;;;;;;;;;4918793;29;20040;-75
2022/10/27 11:35:11;;;;;;;19.73;8.90;;;;;;;;;;4918703;29;20127;-74
2022/10/27 11:37:53;;;;;;;24.65;8.77;;;;;;;;;;4918668;29;20135;-75
2022/10/27 11:40:28;;;;;;;27.67;9.95;;;;;;;;;;4916589;29;20048;-75
2022/10/27 11:42:59;;;;;;;25.20;9.32;;;;;;;;;;4918122;29;20043;-75
2022/10/27 11:45:25;;;;;;;;;;;;;;;;;;4918999;29;20059;-75
2022/10/27 11:48:00;;;;;;;32.85;8.57;;;;;;;;;;4918557;29;19911;-75
2022/10/27 11:50:30;;;;;;;22.98;8.45;;;;;;;;;;4918602;29;20587;-74
2022/10/27 11:52:58;;;;;;;16.70;7.65;;;;;;;;;;4917304;29;20036;-74
2022/10/27 11:55:25;;;;;;;24.25;7.22;;;;;;;;;;4917884;29;20047;-74
2022/10/27 11:58:10;;;;;;;23.77;7.60;;;;;;;;;;4918037;29;20087;-74
2022/10/27 12:00:45;;;;;;;16.92;7.22;;;;;;;;;;4918448;29;20039;-75
2022/10/27 12:03:22;;;;;;;19.27;7.65;;;;;;;;;;4918395;29;20054;-75
2022/10/27 12:05:55;;;;;;;22.90;7.78;;;;;;;;;;4918209;29;20052;-74
2022/10/27 12:08:26;;;;;;;19.77;7.78;;;;;;;;;;4918279;29;20051;-75
2022/10/27 12:11:15;;;;;;;24.48;8.10;;;;;;;;;;4918254;29;20048;-75
2022/10/27 12:13:55;;;;;;;25.55;7.93;;;;;;;;;;4918711;29;20462;-75
2022/10/27 12:16:33;;;;;;;20.35;7.22;;;;;;;;;;4918773;29;20047;-75
2022/10/27 12:19:05;;;;;;;25.92;8.40;;;;;;;;;;4918363;29;20048;-75
2022/10/27 12:21:44;;;;;;;25.52;8.18;;;;;;;;;;4918215;29;20556;-74
2022/10/27 12:24:24;;;;;;;22.17;8.10;;;;;;;;;;4917763;29;20048;-75
2022/10/27 12:26:53;;;;;;;26.17;8.02;;;;;;;;;;4918701;29;20044;-74
2022/10/27 12:29:21;;;;;;;19.40;7.18;;;;;;;;;;4918499;29;20092;-74
2022/10/27 12:31:59;;;;;;;19.13;8.15;;;;;;;;;;4918121;29;20131;-75
2022/10/27 12:34:28;;;;;;;17.25;7.78;;;;;;;;;;4918359;29;20040;-75
2022/10/27 12:37:04;;;;;;;17.13;7.47;;;;;;;;;;4918022;29;20052;-75
2022/10/27 12:39:30;;;;;;;19.65;7.72;;;;;;;;;;4918195;29;20092;-75
2022/10/27 12:42:02;;;;;;;23.40;8.73;;;;;;;;;;4917530;29;20056;-75
2022/10/27 12:44:28;;;;;;;18.77;7.80;;;;;;;;;;4918317;29;20040;-75
2022/10/27 12:46:57;;;;;;;22.35;9.02;;;;;;;;;;4917949;29;20048;-74
2022/10/27 12:49:32;;;;;;;23.02;8.63;;;;;;;;;;4918193;29;20048;-74
2022/10/27 12:52:08;;;;;;;26.92;8.00;;;;;;;;;;4917241;29;20044;-74
2022/10/27 12:54:34;;;;;;;18.50;7.80;;;;;;;;;;4917737;29;20492;-74
2022/10/27 12:57:14;;;;;;;21.50;8.00;;;;;;;;;;4917560;29;20082;-74
2022/10/27 12:59:40;;;;;;;21.75;8.25;;;;;;;;;;4918182;29;20075;-74
2022/10/27 13:02:10;;;;;;;27.48;8.60;;;;;;;;;;4917828;29;20036;-73
2022/10/27 13:04:45;;;;;;;19.48;8.00;;;;;;;;;;4919126;29;20047;-74
2022/10/27 13:07:11;;;;;;;25.35;8.02;;;;;;;;;;4921689;29;20056;-74
2022/10/27 13:09:45;;;;;;;20.88;8.13;;;;;;;;;;4920896;29;20381;-74
2022/10/27 13:12:29;;;;;;;18.80;8.82;;;;;;;;;;4921252;29;20173;-75
2022/10/27 13:14:58;;;;;;;18.40;7.00;;;;;;;;;;4936156;29;20079;-75
2022/10/27 13:17:43;;;;;;;27.55;8.23;;;;;;;;;;4921478;29;20135;-74
2022/10/27 13:20:17;;;;;;;25.90;7.95;;;;;;;;;;4921296;29;20056;-74
2022/10/27 13:22:43;;;;;;;34.40;8.52;;;;;;;;;;4921419;29;20048;-74
2022/10/27 13:25:09;;;;;;;25.15;8.23;;;;;;;;;;4920951;29;20091;-74
2022/10/27 13:27:53;;;;;;;23.75;7.93;;;;;;;;;;4921561;29;20054;-75
2022/10/27 13:30:29;;;;;;;19.92;7.57;;;;;;;;;;4921056;29;20079;-75
2022/10/27 13:32:56;;;;;;;17.33;7.97;;;;;;;;;;4908719;29;20482;-73
2022/10/27 13:35:29;;;;;;;22.23;8.02;;;;;;;;;;4919984;29;20048;-74
2022/10/27 13:37:57;;;;;;;26.38;8.27;;;;;;;;;;4920454;29;20039;-74
2022/10/27 13:40:26;;;;;;;18.60;7.57;;;;;;;;;;4919082;29;20060;-74
2022/10/27 13:42:53;;;;;;;28.80;9.00;;;;;;;;;;4920681;29;20056;-74
2022/10/27 13:45:37;;;;;;;25.95;7.72;;;;;;;;;;4919555;29;20538;-74
2022/10/27 13:48:09;;;;;;;23.67;8.25;;;;;;;;;;4919813;29;20307;-75
2022/10/27 13:50:40;;;;;;;24.95;8.65;;;;;;;;;;4920118;29;20080;-74
2022/10/27 13:53:15;;;;;;;25.40;8.68;;;;;;;;;;4920317;29;20127;-74
2022/10/27 13:55:48;;;;;;;21.83;7.88;;;;;;;;;;4920084;29;20044;-74
2022/10/27 13:58:20;;;;;;;24.27;7.70;;;;;;;;;;4919837;29;20043;-74
2022/10/27 14:01:05;;;;;;;20.20;8.23;;;;;;;;;;4919459;29;20054;-75
2022/10/27 14:03:37;;;;;;;23.65;8.63;;;;;;;;;;4919329;29;20040;-75
2022/10/27 14:06:03;;;;;;;25.00;7.75;;;;;;;;;;4919665;29;20447;-75
2022/10/27 14:08:30;;;;;;;25.08;8.38;;;;;;;;;;4920112;29;20578;-75
2022/10/27 14:10:59;;;;;;;19.70;8.23;;;;;;;;;;4926809;29;20530;-73
2022/10/27 14:13:37;;;;;;;23.48;7.90;;;;;;;;;;4921579;29;20048;-76
2022/10/27 14:16:03;;;;;;;26.63;8.20;;;;;;;;;;4918527;29;20067;-74
2022/10/27 14:18:34;;;;;;;21.27;7.72;;;;;;;;;;4919434;29;20048;-75
2022/10/27 14:21:15;;;;;;;15.38;7.63;;;;;;;;;;4919208;29;20333;-74
2022/10/27 14:23:42;;;;;;;24.48;8.23;;;;;;;;;;4918444;29;20047;-74
2022/10/27 14:26:23;;;;;;;17.75;7.32;;;;;;;;;;4918934;29;20059;-71
2022/10/27 14:28:49;;;;;;;19.13;7.38;;;;;;;;;;4920178;29;20044;-72
2022/10/27 14:31:17;;;;;;;22.98;7.50;;;;;;;;;;4920663;29;20044;-70
2022/10/27 14:33:44;;;;;;;23.92;7.93;;;;;;;;;;4919987;29;20042;-73